sensor_id;sensor_type;location;lat;lon;timestamp;pressure;altitude;pressure_sealevel;temperature;humidity
11912;BME280;6016;41.928;25.556;2023-07-24T00:01:48;99102.22;;;27.31;59.39
11912;BME280;6016;41.928;25.556;2023-07-24T00:04:15;99180.19;;;27.85;60.14
11912;BME280;6016;41.928;25.556;2023-07-24T00:06:43;99181.19;;;27.79;60.83
11912;BME280;6016;41.928;25.556;2023-07-24T00:09:10;99195.31;;;27.81;59.39
11912;BME280;6016;41.928;25.556;2023-07-24T00:11:36;99175.75;;;27.79;60.17
11912;BME280;6016;41.928;25.556;2023-07-24T00:14:03;99152.66;;;27.54;59.88
11912;BME280;6016;41.928;25.556;2023-07-24T00:16:30;99183.94;;;27.62;61.75
11912;BME280;6016;41.928;25.556;2023-07-24T00:18:57;99172.47;;;27.55;60.50
11912;BME280;6016;41.928;25.556;2023-07-24T00:21:24;99174.34;;;27.54;61.67
11912;BME280;6016;41.928;25.556;2023-07-24T00:23:52;99134.50;;;27.32;62.66
11912;BME280;6016;41.928;25.556;2023-07-24T00:26:19;99183.56;;;27.53;62.53
11912;BME280;6016;41.928;25.556;2023-07-24T00:28:45;99111.78;;;27.16;62.17
11912;BME280;6016;41.928;25.556;2023-07-24T00:31:12;99176.06;;;27.60;63.11
11912;BME280;6016;41.928;25.556;2023-07-24T00:33:39;99174.66;;;27.58;63.06
11912;BME280;6016;41.928;25.556;2023-07-24T00:36:06;99178.03;;;27.48;64.13
11912;BME280;6016;41.928;25.556;2023-07-24T00:38:32;99181.00;;;27.46;63.64
11912;BME280;6016;41.928;25.556;2023-07-24T00:41:01;99176.97;;;27.49;64.31
11912;BME280;6016;41.928;25.556;2023-07-24T00:43:28;99179.91;;;27.47;63.98
11912;BME280;6016;41.928;25.556;2023-07-24T00:45:56;99181.31;;;27.50;63.32
11912;BME280;6016;41.928;25.556;2023-07-24T00:48:23;99127.94;;;27.11;64.51
11912;BME280;6016;41.928;25.556;2023-07-24T00:50:50;99181.56;;;27.48;64.54
11912;BME280;6016;41.928;25.556;2023-07-24T00:53:19;99178.84;;;27.48;64.88
11912;BME280;6016;41.928;25.556;2023-07-24T00:55:46;99178.28;;;27.46;63.27
11912;BME280;6016;41.928;25.556;2023-07-24T00:58:16;99181.69;;;27.54;62.75
11912;BME280;6016;41.928;25.556;2023-07-24T01:00:43;99154.91;;;27.40;65.23
11912;BME280;6016;41.928;25.556;2023-07-24T01:03:10;99184.94;;;27.56;62.93
11912;BME280;6016;41.928;25.556;2023-07-24T01:05:37;99185.84;;;27.61;63.13
11912;BME280;6016;41.928;25.556;2023-07-24T01:08:05;99142.78;;;27.26;64.98
11912;BME280;6016;41.928;25.556;2023-07-24T01:10:32;99168.53;;;27.28;63.84
11912;BME280;6016;41.928;25.556;2023-07-24T01:13:03;99179.59;;;27.61;63.22
11912;BME280;6016;41.928;25.556;2023-07-24T01:15:35;99162.88;;;27.30;64.03
11912;BME280;6016;41.928;25.556;2023-07-24T01:18:07;99129.44;;;27.19;64.94
11912;BME280;6016;41.928;25.556;2023-07-24T01:20:37;99167.28;;;27.53;63.59
11912;BME280;6016;41.928;25.556;2023-07-24T01:23:24;99132.25;;;27.29;66.21
11912;BME280;6016;41.928;25.556;2023-07-24T01:25:56;99176.72;;;27.50;65.63
11912;BME280;6016;41.928;25.556;2023-07-24T01:28:24;99135.03;;;27.12;66.47
11912;BME280;6016;41.928;25.556;2023-07-24T01:30:51;99142.63;;;27.15;65.26
11912;BME280;6016;41.928;25.556;2023-07-24T01:33:18;99173.53;;;27.36;64.90
11912;BME280;6016;41.928;25.556;2023-07-24T01:35:49;99182.34;;;27.44;67.10
11912;BME280;6016;41.928;25.556;2023-07-24T01:38:17;99104.41;;;26.94;65.11
11912;BME280;6016;41.928;25.556;2023-07-24T01:40:45;99179.63;;;27.44;66.01
11912;BME280;6016;41.928;25.556;2023-07-24T01:43:13;99170.59;;;27.38;64.42
11912;BME280;6016;41.928;25.556;2023-07-24T01:45:40;99181.56;;;27.48;66.89
11912;BME280;6016;41.928;25.556;2023-07-24T01:48:07;99179.63;;;27.44;65.23
11912;BME280;6016;41.928;25.556;2023-07-24T01:50:34;99153.94;;;27.29;65.22
11912;BME280;6016;41.928;25.556;2023-07-24T01:53:00;99134.69;;;27.08;65.16
11912;BME280;6016;41.928;25.556;2023-07-24T01:55:27;99186.72;;;27.50;66.99
11912;BME280;6016;41.928;25.556;2023-07-24T01:57:54;99193.09;;;27.21;69.54
11912;BME280;6016;41.928;25.556;2023-07-24T02:00:22;99188.22;;;26.72;71.28
11912;BME280;6016;41.928;25.556;2023-07-24T02:02:49;99167.00;;;26.35;72.93
11912;BME280;6016;41.928;25.556;2023-07-24T02:05:16;99145.22;;;26.12;73.05
11912;BME280;6016;41.928;25.556;2023-07-24T02:07:43;99198.34;;;26.48;69.45
11912;BME280;6016;41.928;25.556;2023-07-24T02:10:10;99153.00;;;26.38;68.69
11912;BME280;6016;41.928;25.556;2023-07-24T02:12:36;99197.25;;;26.78;68.37
11912;BME280;6016;41.928;25.556;2023-07-24T02:15:04;99202.63;;;26.90;67.52
11912;BME280;6016;41.928;25.556;2023-07-24T02:17:32;99196.81;;;26.98;68.82
11912;BME280;6016;41.928;25.556;2023-07-24T02:19:59;99027.63;;;25.98;66.99
11912;BME280;6016;41.928;25.556;2023-07-24T02:22:25;99120.00;;;26.70;66.49
11912;BME280;6016;41.928;25.556;2023-07-24T02:24:52;99190.09;;;27.18;67.19
11912;BME280;6016;41.928;25.556;2023-07-24T02:27:26;99148.06;;;26.98;66.82
11912;BME280;6016;41.928;25.556;2023-07-24T02:29:53;99153.66;;;27.08;66.22
11912;BME280;6016;41.928;25.556;2023-07-24T02:32:20;99183.44;;;27.26;66.62
11912;BME280;6016;41.928;25.556;2023-07-24T02:34:50;99201.03;;;27.28;66.38
11912;BME280;6016;41.928;25.556;2023-07-24T02:37:17;99191.63;;;27.31;65.66
11912;BME280;6016;41.928;25.556;2023-07-24T02:39:44;99110.38;;;26.79;66.15
11912;BME280;6016;41.928;25.556;2023-07-24T02:42:11;99178.81;;;27.26;65.80
11912;BME280;6016;41.928;25.556;2023-07-24T02:44:38;99188.72;;;27.37;65.03
11912;BME280;6016;41.928;25.556;2023-07-24T02:47:05;99189.81;;;27.36;68.04
11912;BME280;6016;41.928;25.556;2023-07-24T02:49:32;99189.97;;;27.30;67.01
11912;BME280;6016;41.928;25.556;2023-07-24T02:52:00;99188.06;;;27.30;67.29
11912;BME280;6016;41.928;25.556;2023-07-24T02:54:27;99184.31;;;27.31;66.14
11912;BME280;6016;41.928;25.556;2023-07-24T02:56:54;99185.13;;;27.32;66.34
11912;BME280;6016;41.928;25.556;2023-07-24T02:59:21;99182.41;;;27.32;66.37
11912;BME280;6016;41.928;25.556;2023-07-24T03:01:47;99147.06;;;27.04;66.16
11912;BME280;6016;41.928;25.556;2023-07-24T03:04:14;99143.00;;;27.02;66.81
11912;BME280;6016;41.928;25.556;2023-07-24T03:06:41;99190.31;;;27.33;65.78
11912;BME280;6016;41.928;25.556;2023-07-24T03:09:09;99187.59;;;27.33;65.79
11912;BME280;6016;41.928;25.556;2023-07-24T03:11:36;99193.00;;;27.33;66.78
11912;BME280;6016;41.928;25.556;2023-07-24T03:14:03;99194.81;;;27.28;66.63
11912;BME280;6016;41.928;25.556;2023-07-24T03:16:29;99075.22;;;26.45;68.04
11912;BME280;6016;41.928;25.556;2023-07-24T03:18:57;99172.94;;;27.12;65.97
11912;BME280;6016;41.928;25.556;2023-07-24T03:21:24;99202.13;;;27.27;66.32
11912;BME280;6016;41.928;25.556;2023-07-24T03:23:51;99189.97;;;27.30;65.87
11912;BME280;6016;41.928;25.556;2023-07-24T03:26:19;99168.66;;;26.99;67.23
11912;BME280;6016;41.928;25.556;2023-07-24T03:28:45;99199.34;;;27.22;67.90
11912;BME280;6016;41.928;25.556;2023-07-24T03:31:12;99150.78;;;26.98;68.04
11912;BME280;6016;41.928;25.556;2023-07-24T03:33:39;99176.84;;;27.21;67.06
11912;BME280;6016;41.928;25.556;2023-07-24T03:36:06;99172.50;;;27.20;68.42
11912;BME280;6016;41.928;25.556;2023-07-24T03:38:33;99165.72;;;27.18;67.09
11912;BME280;6016;41.928;25.556;2023-07-24T03:41:00;99172.50;;;27.20;68.93
11912;BME280;6016;41.928;25.556;2023-07-24T03:43:28;99174.56;;;27.13;68.47
11912;BME280;6016;41.928;25.556;2023-07-24T03:45:55;99178.91;;;27.14;67.60
11912;BME280;6016;41.928;25.556;2023-07-24T03:48:21;99176.69;;;27.11;67.71
11912;BME280;6016;41.928;25.556;2023-07-24T03:50:49;99111.94;;;26.75;67.76
11912;BME280;6016;41.928;25.556;2023-07-24T03:53:17;99179.72;;;27.15;67.73
11912;BME280;6016;41.928;25.556;2023-07-24T03:55:43;99158.66;;;27.00;67.27
11912;BME280;6016;41.928;25.556;2023-07-24T03:58:11;99177.84;;;27.15;69.43
11912;BME280;6016;41.928;25.556;2023-07-24T04:00:39;99172.34;;;27.10;68.92
11912;BME280;6016;41.928;25.556;2023-07-24T04:03:06;99175.66;;;27.12;67.47
11912;BME280;6016;41.928;25.556;2023-07-24T04:05:34;99114.31;;;26.72;67.11
11912;BME280;6016;41.928;25.556;2023-07-24T04:08:02;99182.44;;;27.15;68.04
11912;BME280;6016;41.928;25.556;2023-07-24T04:10:29;99157.59;;;27.01;68.37
11912;BME280;6016;41.928;25.556;2023-07-24T04:12:56;99186.22;;;27.14;68.94
11912;BME280;6016;41.928;25.556;2023-07-24T04:15:23;99177.84;;;26.98;68.79
11912;BME280;6016;41.928;25.556;2023-07-24T04:17:51;99179.38;;;27.11;68.16
11912;BME280;6016;41.928;25.556;2023-07-24T04:20:18;99194.84;;;27.10;68.52
11912;BME280;6016;41.928;25.556;2023-07-24T04:22:45;99186.94;;;27.09;68.67
11912;BME280;6016;41.928;25.556;2023-07-24T04:25:11;99197.78;;;27.09;68.70
11912;BME280;6016;41.928;25.556;2023-07-24T04:27:38;99169.66;;;26.93;67.76
11912;BME280;6016;41.928;25.556;2023-07-24T04:30:06;99157.00;;;26.81;67.44
11912;BME280;6016;41.928;25.556;2023-07-24T04:32:33;99188.69;;;26.98;69.23
11912;BME280;6016;41.928;25.556;2023-07-24T04:35:02;99195.56;;;27.06;69.58
11912;BME280;6016;41.928;25.556;2023-07-24T04:37:28;99194.25;;;27.08;68.21
11912;BME280;6016;41.928;25.556;2023-07-24T04:39:55;99198.44;;;26.99;69.08
11912;BME280;6016;41.928;25.556;2023-07-24T04:42:22;99195.66;;;26.94;70.16
11912;BME280;6016;41.928;25.556;2023-07-24T04:44:49;99200.59;;;26.85;71.08
11912;BME280;6016;41.928;25.556;2023-07-24T04:47:17;99198.16;;;26.83;69.44
11912;BME280;6016;41.928;25.556;2023-07-24T04:49:43;99142.59;;;26.47;68.63
11912;BME280;6016;41.928;25.556;2023-07-24T04:52:11;99211.91;;;26.94;70.24
11912;BME280;6016;41.928;25.556;2023-07-24T04:54:38;99214.34;;;26.95;68.57
11912;BME280;6016;41.928;25.556;2023-07-24T04:57:05;99218.81;;;27.02;68.82
11912;BME280;6016;41.928;25.556;2023-07-24T04:59:32;99107.16;;;26.31;70.05
11912;BME280;6016;41.928;25.556;2023-07-24T05:01:59;99220.03;;;26.94;70.71
11912;BME280;6016;41.928;25.556;2023-07-24T05:04:26;99056.00;;;25.83;69.90
11912;BME280;6016;41.928;25.556;2023-07-24T05:06:52;99218.53;;;26.86;69.45
11912;BME280;6016;41.928;25.556;2023-07-24T05:09:20;99214.84;;;26.92;69.10
11912;BME280;6016;41.928;25.556;2023-07-24T05:11:47;99217.63;;;26.98;70.00
11912;BME280;6016;41.928;25.556;2023-07-24T05:14:14;99218.22;;;27.00;68.93
11912;BME280;6016;41.928;25.556;2023-07-24T05:16:41;99221.25;;;27.03;70.05
11912;BME280;6016;41.928;25.556;2023-07-24T05:19:08;99223.03;;;26.98;70.68
11912;BME280;6016;41.928;25.556;2023-07-24T05:21:34;99225.75;;;26.98;68.58
11912;BME280;6016;41.928;25.556;2023-07-24T05:24:01;99225.03;;;27.02;68.75
11912;BME280;6016;41.928;25.556;2023-07-24T05:26:29;99237.81;;;27.07;69.00
11912;BME280;6016;41.928;25.556;2023-07-24T05:28:56;99241.59;;;27.06;70.00
11912;BME280;6016;41.928;25.556;2023-07-24T05:31:23;99200.47;;;26.75;70.05
11912;BME280;6016;41.928;25.556;2023-07-24T05:33:50;99242.00;;;26.98;70.91
11912;BME280;6016;41.928;25.556;2023-07-24T05:36:16;99243.06;;;26.96;70.92
11912;BME280;6016;41.928;25.556;2023-07-24T05:38:43;99046.25;;;25.41;71.19
11912;BME280;6016;41.928;25.556;2023-07-24T05:41:10;99224.72;;;26.69;70.52
11912;BME280;6016;41.928;25.556;2023-07-24T05:43:38;99168.66;;;26.36;70.74
11912;BME280;6016;41.928;25.556;2023-07-24T05:46:05;99239.22;;;26.92;70.16
11912;BME280;6016;41.928;25.556;2023-07-24T05:48:32;99237.59;;;26.79;71.00
11912;BME280;6016;41.928;25.556;2023-07-24T05:50:58;99257.03;;;26.76;70.00
11912;BME280;6016;41.928;25.556;2023-07-24T05:53:25;99225.59;;;26.58;70.30
11912;BME280;6016;41.928;25.556;2023-07-24T05:55:59;99175.69;;;26.37;71.26
11912;BME280;6016;41.928;25.556;2023-07-24T05:58:26;99249.81;;;26.82;71.20
11912;BME280;6016;41.928;25.556;2023-07-24T06:00:54;99224.91;;;26.80;69.69
11912;BME280;6016;41.928;25.556;2023-07-24T06:03:21;99244.31;;;27.06;70.27
11912;BME280;6016;41.928;25.556;2023-07-24T06:05:50;99217.06;;;26.95;68.63
11912;BME280;6016;41.928;25.556;2023-07-24T06:08:18;99214.19;;;27.02;68.07
11912;BME280;6016;41.928;25.556;2023-07-24T06:10:46;99234.88;;;27.26;68.40
11912;BME280;6016;41.928;25.556;2023-07-24T06:13:13;99226.50;;;27.27;67.83
11912;BME280;6016;41.928;25.556;2023-07-24T06:15:40;99239.13;;;27.38;67.08
11912;BME280;6016;41.928;25.556;2023-07-24T06:18:09;99240.44;;;27.36;68.40
11912;BME280;6016;41.928;25.556;2023-07-24T06:20:36;99233.09;;;27.14;70.22
11912;BME280;6016;41.928;25.556;2023-07-24T06:23:02;99260.91;;;27.09;70.28
11912;BME280;6016;41.928;25.556;2023-07-24T06:25:30;99171.84;;;26.79;69.49
11912;BME280;6016;41.928;25.556;2023-07-24T06:27:57;99227.16;;;27.17;70.02
11912;BME280;6016;41.928;25.556;2023-07-24T06:30:24;99202.88;;;27.05;68.83
11912;BME280;6016;41.928;25.556;2023-07-24T06:32:51;99225.19;;;27.13;70.01
11912;BME280;6016;41.928;25.556;2023-07-24T06:35:19;99218.31;;;27.05;70.47
11912;BME280;6016;41.928;25.556;2023-07-24T06:37:46;99218.06;;;26.89;71.41
11912;BME280;6016;41.928;25.556;2023-07-24T06:40:13;99224.91;;;26.80;72.29
11912;BME280;6016;41.928;25.556;2023-07-24T06:42:40;99168.34;;;26.49;70.78
11912;BME280;6016;41.928;25.556;2023-07-24T06:45:07;99160.81;;;26.51;70.94
11912;BME280;6016;41.928;25.556;2023-07-24T06:47:35;99113.00;;;26.40;70.90
11912;BME280;6016;41.928;25.556;2023-07-24T06:50:02;99174.88;;;26.82;70.81
11912;BME280;6016;41.928;25.556;2023-07-24T06:52:31;99215.94;;;27.26;70.10
11912;BME280;6016;41.928;25.556;2023-07-24T06:54:58;99134.28;;;26.82;69.53
11912;BME280;6016;41.928;25.556;2023-07-24T06:57:25;99223.53;;;27.46;69.17
11912;BME280;6016;41.928;25.556;2023-07-24T06:59:51;99213.63;;;27.34;69.25
11912;BME280;6016;41.928;25.556;2023-07-24T07:02:18;99214.97;;;27.71;69.03
11912;BME280;6016;41.928;25.556;2023-07-24T07:04:45;99198.13;;;27.69;68.50
11912;BME280;6016;41.928;25.556;2023-07-24T07:07:12;99185.16;;;27.71;66.55
11912;BME280;6016;41.928;25.556;2023-07-24T07:09:40;99213.09;;;27.94;68.04
11912;BME280;6016;41.928;25.556;2023-07-24T07:12:07;99210.50;;;28.04;67.81
11912;BME280;6016;41.928;25.556;2023-07-24T07:14:34;99199.34;;;28.01;68.08
11912;BME280;6016;41.928;25.556;2023-07-24T07:17:01;99194.81;;;28.06;67.00
11912;BME280;6016;41.928;25.556;2023-07-24T07:19:28;99131.81;;;27.77;65.38
11912;BME280;6016;41.928;25.556;2023-07-24T07:21:55;99168.75;;;28.05;65.93
11912;BME280;6016;41.928;25.556;2023-07-24T07:24:22;99184.16;;;28.22;66.78
11912;BME280;6016;41.928;25.556;2023-07-24T07:26:50;99204.75;;;28.45;66.87
11912;BME280;6016;41.928;25.556;2023-07-24T07:29:16;99200.03;;;28.35;66.97
11912;BME280;6016;41.928;25.556;2023-07-24T07:31:43;99112.47;;;27.68;67.43
11912;BME280;6016;41.928;25.556;2023-07-24T07:34:10;99197.38;;;28.41;66.38
11912;BME280;6016;41.928;25.556;2023-07-24T07:36:37;99194.19;;;28.49;66.45
11912;BME280;6016;41.928;25.556;2023-07-24T07:39:04;99145.66;;;28.25;66.19
11912;BME280;6016;41.928;25.556;2023-07-24T07:41:30;99170.34;;;28.51;66.44
11912;BME280;6016;41.928;25.556;2023-07-24T07:43:59;99142.47;;;28.33;66.10
11912;BME280;6016;41.928;25.556;2023-07-24T07:46:25;99163.34;;;28.60;65.79
11912;BME280;6016;41.928;25.556;2023-07-24T07:48:52;99192.34;;;28.82;65.03
11912;BME280;6016;41.928;25.556;2023-07-24T07:51:19;99186.97;;;28.87;65.11
11912;BME280;6016;41.928;25.556;2023-07-24T07:53:46;99182.91;;;28.90;64.96
11912;BME280;6016;41.928;25.556;2023-07-24T07:56:13;99178.25;;;28.85;64.06
11912;BME280;6016;41.928;25.556;2023-07-24T07:58:40;99188.81;;;29.14;64.48
11912;BME280;6016;41.928;25.556;2023-07-24T08:01:08;99189.94;;;29.18;63.07
11912;BME280;6016;41.928;25.556;2023-07-24T08:03:35;99155.38;;;29.09;63.20
11912;BME280;6016;41.928;25.556;2023-07-24T08:06:02;99151.59;;;29.15;62.34
11912;BME280;6016;41.928;25.556;2023-07-24T08:08:29;99171.84;;;29.40;62.47
11912;BME280;6016;41.928;25.556;2023-07-24T08:10:55;99157.94;;;29.31;62.01
11912;BME280;6016;41.928;25.556;2023-07-24T08:13:22;99166.75;;;29.48;62.11
11912;BME280;6016;41.928;25.556;2023-07-24T08:15:49;99175.22;;;29.57;63.08
11912;BME280;6016;41.928;25.556;2023-07-24T08:18:17;99161.06;;;29.50;61.34
11912;BME280;6016;41.928;25.556;2023-07-24T08:20:45;99167.34;;;29.56;61.77
11912;BME280;6016;41.928;25.556;2023-07-24T08:23:12;98934.53;;;28.17;62.00
11912;BME280;6016;41.928;25.556;2023-07-24T08:25:39;99167.41;;;29.71;61.72
11912;BME280;6016;41.928;25.556;2023-07-24T08:28:06;99115.09;;;29.43;61.99
11912;BME280;6016;41.928;25.556;2023-07-24T08:30:34;99164.50;;;29.88;60.79
11912;BME280;6016;41.928;25.556;2023-07-24T08:33:00;99142.94;;;29.76;60.45
11912;BME280;6016;41.928;25.556;2023-07-24T08:35:29;99162.31;;;29.96;59.32
11912;BME280;6016;41.928;25.556;2023-07-24T08:37:55;99114.16;;;29.81;59.20
11912;BME280;6016;41.928;25.556;2023-07-24T08:40:22;99068.16;;;29.64;59.11
11912;BME280;6016;41.928;25.556;2023-07-24T08:42:49;99143.38;;;30.16;58.96
11912;BME280;6016;41.928;25.556;2023-07-24T08:45:17;99140.69;;;30.27;57.72
11912;BME280;6016;41.928;25.556;2023-07-24T08:47:44;99121.09;;;30.25;57.50
11912;BME280;6016;41.928;25.556;2023-07-24T08:50:12;99140.41;;;30.39;55.01
11912;BME280;6016;41.928;25.556;2023-07-24T08:52:42;99125.16;;;30.32;56.15
11912;BME280;6016;41.928;25.556;2023-07-24T08:55:10;99132.25;;;30.49;56.35
11912;BME280;6016;41.928;25.556;2023-07-24T08:57:37;99131.72;;;30.63;55.90
11912;BME280;6016;41.928;25.556;2023-07-24T09:00:06;99121.41;;;30.70;56.25
11912;BME280;6016;41.928;25.556;2023-07-24T09:02:33;99129.84;;;30.79;52.96
11912;BME280;6016;41.928;25.556;2023-07-24T09:05:01;99122.75;;;30.88;54.64
11912;BME280;6016;41.928;25.556;2023-07-24T09:07:29;99124.63;;;30.98;52.39
11912;BME280;6016;41.928;25.556;2023-07-24T09:09:58;99123.00;;;30.97;52.63
11912;BME280;6016;41.928;25.556;2023-07-24T09:12:25;99122.47;;;31.05;52.71
11912;BME280;6016;41.928;25.556;2023-07-24T09:15:01;99122.72;;;31.14;50.77
11912;BME280;6016;41.928;25.556;2023-07-24T09:17:28;99060.66;;;30.74;50.13
11912;BME280;6016;41.928;25.556;2023-07-24T09:19:55;99108.25;;;31.19;51.44
11912;BME280;6016;41.928;25.556;2023-07-24T09:22:22;99097.09;;;31.25;49.73
11912;BME280;6016;41.928;25.556;2023-07-24T09:24:53;99107.13;;;31.35;49.48
11912;BME280;6016;41.928;25.556;2023-07-24T09:27:25;99082.34;;;31.21;46.68
11912;BME280;6016;41.928;25.556;2023-07-24T09:29:52;99083.69;;;31.34;48.15
11912;BME280;6016;41.928;25.556;2023-07-24T09:32:20;99101.03;;;31.59;47.68
11912;BME280;6016;41.928;25.556;2023-07-24T09:34:48;99103.41;;;31.76;48.73
11912;BME280;6016;41.928;25.556;2023-07-24T09:37:26;99085.16;;;31.82;48.27
11912;BME280;6016;41.928;25.556;2023-07-24T09:39:53;99083.41;;;31.96;44.98
11912;BME280;6016;41.928;25.556;2023-07-24T09:42:29;99050.69;;;31.91;46.85
11912;BME280;6016;41.928;25.556;2023-07-24T09:44:56;99070.38;;;32.23;47.22
11912;BME280;6016;41.928;25.556;2023-07-24T09:47:23;99064.03;;;32.38;44.35
11912;BME280;6016;41.928;25.556;2023-07-24T09:49:50;99088.91;;;32.66;45.80
11912;BME280;6016;41.928;25.556;2023-07-24T09:52:19;99080.34;;;32.78;45.13
11912;BME280;6016;41.928;25.556;2023-07-24T09:54:55;99022.81;;;32.64;43.95
11912;BME280;6016;41.928;25.556;2023-07-24T09:57:26;99076.41;;;33.14;45.65
11912;BME280;6016;41.928;25.556;2023-07-24T09:59:56;99065.66;;;32.98;42.08
11912;BME280;6016;41.928;25.556;2023-07-24T10:02:23;99052.88;;;32.93;39.82
11912;BME280;6016;41.928;25.556;2023-07-24T10:04:51;99029.47;;;32.82;42.10
11912;BME280;6016;41.928;25.556;2023-07-24T10:07:19;99014.00;;;32.72;41.06
11912;BME280;6016;41.928;25.556;2023-07-24T10:09:47;99003.41;;;32.65;42.48
11912;BME280;6016;41.928;25.556;2023-07-24T10:12:15;99061.75;;;33.04;40.08
11912;BME280;6016;41.928;25.556;2023-07-24T10:14:43;98984.00;;;32.67;42.69
11912;BME280;6016;41.928;25.556;2023-07-24T10:17:12;99054.56;;;33.14;38.99
11912;BME280;6016;41.928;25.556;2023-07-24T10:19:40;98947.28;;;32.54;38.21
11912;BME280;6016;41.928;25.556;2023-07-24T10:22:08;98892.38;;;32.26;40.00
11912;BME280;6016;41.928;25.556;2023-07-24T10:24:36;98991.72;;;32.84;37.95
11912;BME280;6016;41.928;25.556;2023-07-24T10:27:03;98978.94;;;32.79;38.35
11912;BME280;6016;41.928;25.556;2023-07-24T10:29:34;99031.06;;;33.13;37.33
11912;BME280;6016;41.928;25.556;2023-07-24T10:32:01;98986.22;;;32.89;38.09
11912;BME280;6016;41.928;25.556;2023-07-24T10:34:37;99030.97;;;33.18;39.67
11912;BME280;6016;41.928;25.556;2023-07-24T10:37:07;99034.03;;;33.16;38.47
11912;BME280;6016;41.928;25.556;2023-07-24T10:39:38;99026.63;;;33.17;38.13
11912;BME280;6016;41.928;25.556;2023-07-24T10:42:07;99022.63;;;33.09;37.23
11912;BME280;6016;41.928;25.556;2023-07-24T10:44:34;98991.28;;;33.01;39.76
11912;BME280;6016;41.928;25.556;2023-07-24T10:47:01;99013.19;;;33.20;37.36
11912;BME280;6016;41.928;25.556;2023-07-24T10:49:28;99012.91;;;33.22;37.94
11912;BME280;6016;41.928;25.556;2023-07-24T10:51:57;98944.84;;;32.77;39.25
11912;BME280;6016;41.928;25.556;2023-07-24T10:54:24;98960.06;;;33.07;36.60
11912;BME280;6016;41.928;25.556;2023-07-24T10:56:58;99001.59;;;33.29;38.13
11912;BME280;6016;41.928;25.556;2023-07-24T10:59:35;99011.19;;;33.26;35.72
11912;BME280;6016;41.928;25.556;2023-07-24T11:02:03;98997.03;;;33.24;35.28
11912;BME280;6016;41.928;25.556;2023-07-24T11:04:31;98982.97;;;33.11;36.02
11912;BME280;6016;41.928;25.556;2023-07-24T11:07:01;98987.94;;;33.29;36.68
11912;BME280;6016;41.928;25.556;2023-07-24T11:09:35;98982.34;;;33.39;34.52
11912;BME280;6016;41.928;25.556;2023-07-24T11:12:10;98981.78;;;33.37;35.49
11912;BME280;6016;41.928;25.556;2023-07-24T11:14:46;98969.16;;;33.41;36.46
11912;BME280;6016;41.928;25.556;2023-07-24T11:17:13;98959.47;;;33.10;36.10
11912;BME280;6016;41.928;25.556;2023-07-24T11:19:39;98971.41;;;33.39;37.19
11912;BME280;6016;41.928;25.556;2023-07-24T11:22:08;98972.97;;;33.45;36.85
11912;BME280;6016;41.928;25.556;2023-07-24T11:24:45;98968.84;;;33.43;33.63
11912;BME280;6016;41.928;25.556;2023-07-24T11:27:15;98962.97;;;33.35;33.52
11912;BME280;6016;41.928;25.556;2023-07-24T11:29:47;98895.72;;;32.96;34.22
11912;BME280;6016;41.928;25.556;2023-07-24T11:32:17;98953.38;;;33.38;33.76
11912;BME280;6016;41.928;25.556;2023-07-24T11:34:44;98954.25;;;33.33;33.96
11912;BME280;6016;41.928;25.556;2023-07-24T11:37:13;98951.50;;;33.33;34.23
11912;BME280;6016;41.928;25.556;2023-07-24T11:39:40;98901.78;;;33.12;36.38
11912;BME280;6016;41.928;25.556;2023-07-24T11:42:07;98933.78;;;33.50;35.84
11912;BME280;6016;41.928;25.556;2023-07-24T11:44:33;98899.03;;;33.31;35.83
11912;BME280;6016;41.928;25.556;2023-07-24T11:47:01;98942.06;;;33.64;35.04
11912;BME280;6016;41.928;25.556;2023-07-24T11:49:28;98827.75;;;33.08;36.25
11912;BME280;6016;41.928;25.556;2023-07-24T11:52:00;98923.78;;;33.78;34.85
11912;BME280;6016;41.928;25.556;2023-07-24T11:54:29;98907.03;;;33.80;36.02
11912;BME280;6016;41.928;25.556;2023-07-24T11:56:55;98925.63;;;33.97;34.63
11912;BME280;6016;41.928;25.556;2023-07-24T11:59:24;98867.38;;;33.63;33.32
11912;BME280;6016;41.928;25.556;2023-07-24T12:01:51;98879.66;;;33.80;34.08
11912;BME280;6016;41.928;25.556;2023-07-24T12:04:18;98918.69;;;34.05;34.07
11912;BME280;6016;41.928;25.556;2023-07-24T12:06:46;98624.72;;;32.17;35.05
11912;BME280;6016;41.928;25.556;2023-07-24T12:09:13;98918.00;;;34.13;34.71
11912;BME280;6016;41.928;25.556;2023-07-24T12:11:42;98909.34;;;34.06;34.86
11912;BME280;6016;41.928;25.556;2023-07-24T12:14:10;98908.16;;;34.12;36.28
11912;BME280;6016;41.928;25.556;2023-07-24T12:16:38;98901.16;;;34.20;33.75
11912;BME280;6016;41.928;25.556;2023-07-24T12:19:05;98873.19;;;34.09;33.15
11912;BME280;6016;41.928;25.556;2023-07-24T12:21:32;98894.50;;;34.26;32.32
11912;BME280;6016;41.928;25.556;2023-07-24T12:23:58;98732.63;;;32.91;32.93
11912;BME280;6016;41.928;25.556;2023-07-24T12:26:25;98868.41;;;34.01;34.23
11912;BME280;6016;41.928;25.556;2023-07-24T12:28:54;98862.16;;;33.95;34.71
11912;BME280;6016;41.928;25.556;2023-07-24T12:31:21;98847.84;;;33.70;32.80
11912;BME280;6016;41.928;25.556;2023-07-24T12:33:48;98866.19;;;33.84;32.77
11912;BME280;6016;41.928;25.556;2023-07-24T12:36:15;98894.88;;;34.05;33.62
11912;BME280;6016;41.928;25.556;2023-07-24T12:38:42;98884.72;;;34.06;29.91
11912;BME280;6016;41.928;25.556;2023-07-24T12:41:08;98887.44;;;34.06;30.89
11912;BME280;6016;41.928;25.556;2023-07-24T12:43:35;98881.56;;;34.13;30.90
11912;BME280;6016;41.928;25.556;2023-07-24T12:46:03;98877.63;;;34.19;32.30
11912;BME280;6016;41.928;25.556;2023-07-24T12:48:30;98874.59;;;34.20;33.23
11912;BME280;6016;41.928;25.556;2023-07-24T12:50:57;98877.03;;;34.22;30.84
11912;BME280;6016;41.928;25.556;2023-07-24T12:53:25;98814.84;;;33.94;32.78
11912;BME280;6016;41.928;25.556;2023-07-24T12:55:52;98820.75;;;34.02;30.65
11912;BME280;6016;41.928;25.556;2023-07-24T12:58:19;98805.50;;;33.95;30.07
11912;BME280;6016;41.928;25.556;2023-07-24T13:00:45;98866.59;;;34.38;29.90
11912;BME280;6016;41.928;25.556;2023-07-24T13:03:14;98860.81;;;34.40;31.07